createdAt,value
2017-11-03T00:00:24.913Z,1015.10
2017-11-03T00:01:26.807Z,1015.14
2017-11-03T00:02:28.622Z,1015.12
2017-11-03T00:03:30.449Z,1015.07
2017-11-03T00:04:32.329Z,1015.09
2017-11-03T00:05:34.212Z,1015.08
2017-11-03T00:06:36.094Z,1015.10
2017-11-03T00:07:50.246Z,1015.11
2017-11-03T00:08:52.127Z,1015.11
2017-11-03T00:09:54.013Z,1015.15
2017-11-03T00:10:55.893Z,1015.10
2017-11-03T00:11:57.712Z,1015.18
2017-11-03T00:12:59.529Z,1015.20
2017-11-03T00:14:01.412Z,1015.16
2017-11-03T00:15:03.292Z,1015.19
2017-11-03T00:16:05.174Z,1015.20
2017-11-03T00:17:19.324Z,1015.23
2017-11-03T00:18:21.215Z,1015.19
2017-11-03T00:19:23.097Z,1015.24
2017-11-03T00:20:24.979Z,1015.19
2017-11-03T00:21:26.798Z,1015.28
2017-11-03T00:22:28.613Z,1015.23
2017-11-03T00:23:30.495Z,1015.21
2017-11-03T00:24:32.375Z,1015.20
2017-11-03T00:25:34.256Z,1015.22
2017-11-03T00:26:48.406Z,1015.21
2017-11-03T00:27:50.287Z,1015.26
2017-11-03T00:28:52.179Z,1015.21
2017-11-03T00:29:54.061Z,1015.16
2017-11-03T00:30:55.880Z,1015.21
2017-11-03T00:31:57.696Z,1015.23
2017-11-03T00:32:59.581Z,1015.23
2017-11-03T00:34:01.472Z,1015.23
2017-11-03T00:35:03.344Z,1015.29
2017-11-03T00:36:17.496Z,1015.33
2017-11-03T00:37:19.376Z,1015.35
2017-11-03T00:38:21.261Z,1015.34
2017-11-03T00:39:23.155Z,1015.40
2017-11-03T00:40:24.974Z,1015.39
2017-11-03T00:41:26.792Z,1015.40
2017-11-03T00:42:28.670Z,1015.38
2017-11-03T00:43:30.555Z,1015.40
2017-11-03T00:44:32.432Z,1015.43
2017-11-03T00:45:46.584Z,1015.44
2017-11-03T00:46:48.464Z,1015.42
2017-11-03T00:47:50.348Z,1015.43
2017-11-03T00:48:52.228Z,1015.49
2017-11-03T00:49:54.047Z,1015.46
2017-11-03T00:50:55.871Z,1015.49
2017-11-03T00:51:57.760Z,1015.51
2017-11-03T00:52:59.641Z,1015.49
2017-11-03T00:54:01.521Z,1015.51
2017-11-03T00:55:15.721Z,1015.48
2017-11-03T00:56:17.601Z,1015.51
2017-11-03T00:57:19.484Z,1015.52
2017-11-03T00:58:21.372Z,1015.48
2017-11-03T00:59:23.187Z,1015.48
2017-11-03T01:00:25.004Z,1015.53
2017-11-03T01:01:26.896Z,1015.48
2017-11-03T01:02:28.779Z,1015.49
2017-11-03T01:03:30.659Z,1015.53
2017-11-03T01:04:44.863Z,1015.51
2017-11-03T01:05:46.740Z,1015.48
2017-11-03T01:06:48.636Z,1015.44
2017-11-03T01:07:50.519Z,1015.42
2017-11-03T01:08:52.339Z,1015.41
2017-11-03T01:09:54.155Z,1015.38
2017-11-03T01:10:56.040Z,1015.44
2017-11-03T01:11:57.923Z,1015.44
2017-11-03T01:12:59.803Z,1015.43
2017-11-03T01:14:13.965Z,1015.44
2017-11-03T01:15:15.845Z,1015.44
2017-11-03T01:16:17.731Z,1015.45
2017-11-03T01:17:19.613Z,1015.49
2017-11-03T01:18:21.436Z,1015.48
2017-11-03T01:19:23.250Z,1015.51
2017-11-03T01:20:25.140Z,1015.47
2017-11-03T01:21:27.022Z,1015.49
2017-11-03T01:22:28.908Z,1015.49
2017-11-03T01:23:43.057Z,1015.51
2017-11-03T01:24:44.933Z,1015.54
2017-11-03T01:25:46.823Z,1015.54
2017-11-03T01:26:48.698Z,1015.54
2017-11-03T01:27:50.533Z,1015.53
2017-11-03T01:28:52.341Z,1015.59
2017-11-03T01:29:54.226Z,1015.51
2017-11-03T01:30:56.106Z,1015.53
2017-11-03T01:31:57.988Z,1015.56
2017-11-03T01:33:12.140Z,1015.52
2017-11-03T01:34:14.017Z,1015.53
2017-11-03T01:35:15.899Z,1015.56
2017-11-03T01:36:17.781Z,1015.57
2017-11-03T01:37:19.604Z,1015.58
2017-11-03T01:38:21.421Z,1015.60
2017-11-03T01:39:23.309Z,1015.63
2017-11-03T01:40:25.182Z,1015.60
2017-11-03T01:41:27.066Z,1015.63
2017-11-03T01:42:41.217Z,1015.64
2017-11-03T01:43:43.095Z,1015.63
2017-11-03T01:44:44.989Z,1015.64
2017-11-03T01:45:46.870Z,1015.63
2017-11-03T01:46:48.689Z,1015.67
2017-11-03T01:47:50.518Z,1015.67
2017-11-03T01:48:52.400Z,1015.69
2017-11-03T01:49:54.281Z,1015.72
2017-11-03T01:50:56.172Z,1015.75
2017-11-03T01:52:10.323Z,1015.75
2017-11-03T01:53:12.201Z,1015.74
2017-11-03T01:54:14.093Z,1015.80
2017-11-03T01:55:15.975Z,1015.76
2017-11-03T01:56:17.794Z,1015.81
2017-11-03T01:57:19.608Z,1015.76
2017-11-03T01:58:21.497Z,1015.80
2017-11-03T01:59:23.378Z,1015.79
2017-11-03T02:00:25.256Z,1015.84
2017-11-03T02:01:39.404Z,1015.81
2017-11-03T02:02:41.311Z,1015.81
2017-11-03T02:03:43.189Z,1015.82
2017-11-03T02:04:45.078Z,1015.82
2017-11-03T02:05:46.900Z,1015.82
2017-11-03T02:06:48.715Z,1015.81
2017-11-03T02:07:50.592Z,1015.85
2017-11-03T02:08:52.474Z,1015.85
2017-11-03T02:09:54.364Z,1015.88
2017-11-03T02:11:08.510Z,1015.86
2017-11-03T02:12:10.395Z,1015.86
2017-11-03T02:13:12.276Z,1015.89
2017-11-03T02:14:14.156Z,1015.88
2017-11-03T02:15:15.974Z,1015.94
2017-11-03T02:16:17.791Z,1015.86
2017-11-03T02:17:19.673Z,1015.89
2017-11-03T02:18:21.567Z,1015.99
2017-11-03T02:19:23.439Z,1015.97
2017-11-03T02:20:37.588Z,1015.92
2017-11-03T02:21:39.469Z,1015.97
2017-11-03T02:22:41.350Z,1015.93
2017-11-03T02:23:43.229Z,1015.96
2017-11-03T02:24:45.049Z,1015.99
2017-11-03T02:25:46.861Z,1015.99
2017-11-03T02:26:48.741Z,1015.99
2017-11-03T02:27:50.623Z,1016.05
2017-11-03T02:28:52.502Z,1016.02
2017-11-03T02:30:06.651Z,1016.00
2017-11-03T02:31:08.532Z,1016.04
2017-11-03T02:32:10.415Z,1016.01
2017-11-03T02:33:12.294Z,1016.05
2017-11-03T02:34:14.113Z,1016.03
2017-11-03T02:35:15.929Z,1016.09
2017-11-03T02:36:17.810Z,1016.04
2017-11-03T02:37:19.693Z,1016.02
2017-11-03T02:38:21.571Z,1015.98
2017-11-03T02:39:35.779Z,1015.96
2017-11-03T02:40:37.660Z,1015.95
2017-11-03T02:41:39.540Z,1015.98
2017-11-03T02:42:41.423Z,1015.98
2017-11-03T02:43:43.244Z,1015.97
2017-11-03T02:44:45.059Z,1015.98
2017-11-03T02:45:46.950Z,1016.01
2017-11-03T02:46:48.832Z,1015.99
2017-11-03T02:47:50.714Z,1016.01
2017-11-03T02:49:04.868Z,1016.00
2017-11-03T02:50:06.751Z,1016.00
2017-11-03T02:51:08.638Z,1015.99
2017-11-03T02:52:10.521Z,1016.04
2017-11-03T02:53:12.340Z,1016.04
2017-11-03T02:54:14.154Z,1016.04
2017-11-03T02:55:16.034Z,1016.07
2017-11-03T02:56:17.918Z,1016.06
2017-11-03T02:57:19.801Z,1016.09
2017-11-03T02:58:33.953Z,1016.10
2017-11-03T02:59:35.836Z,1016.08
2017-11-03T03:00:37.719Z,1016.11
2017-11-03T03:01:39.605Z,1016.13
2017-11-03T03:02:41.422Z,1016.14
2017-11-03T03:03:43.250Z,1016.13
2017-11-03T03:04:45.142Z,1016.13
2017-11-03T03:05:47.028Z,1016.13
2017-11-03T03:06:48.912Z,1016.10
2017-11-03T03:08:03.064Z,1016.08
2017-11-03T03:09:04.956Z,1016.13
2017-11-03T03:10:06.836Z,1016.11
2017-11-03T03:11:08.721Z,1016.14
2017-11-03T03:12:10.537Z,1016.12
2017-11-03T03:13:12.364Z,1016.10
2017-11-03T03:14:14.256Z,1016.10
2017-11-03T03:15:16.136Z,1016.11
2017-11-03T03:16:18.031Z,1016.16
2017-11-03T03:17:32.184Z,1016.12
2017-11-03T03:18:34.069Z,1016.13
2017-11-03T03:19:35.953Z,1016.13
2017-11-03T03:20:37.851Z,1016.12
2017-11-03T03:21:39.659Z,1016.13
2017-11-03T03:22:41.479Z,1016.14
2017-11-03T03:23:43.355Z,1016.16
2017-11-03T03:24:45.238Z,1016.14
2017-11-03T03:25:47.130Z,1016.09
2017-11-03T03:27:01.283Z,1016.11
2017-11-03T03:28:03.195Z,1016.09
2017-11-03T03:29:05.078Z,1016.11
2017-11-03T03:30:06.961Z,1016.13
2017-11-03T03:31:08.779Z,1016.14
2017-11-03T03:32:10.595Z,1016.19
2017-11-03T03:33:12.478Z,1016.18
2017-11-03T03:34:14.358Z,1016.18
2017-11-03T03:35:16.241Z,1016.21
2017-11-03T03:36:30.403Z,1016.17
2017-11-03T03:37:32.287Z,1016.20
2017-11-03T03:38:34.171Z,1016.23
2017-11-03T03:39:36.055Z,1016.24
2017-11-03T03:40:37.881Z,1016.22
2017-11-03T03:41:39.690Z,1016.23
2017-11-03T03:42:41.615Z,1016.24
2017-11-03T03:43:43.494Z,1016.26
2017-11-03T03:44:45.398Z,1016.26
2017-11-03T03:45:59.550Z,1016.26
2017-11-03T03:47:01.433Z,1016.27
2017-11-03T03:48:03.319Z,1016.29
2017-11-03T03:49:05.216Z,1016.27
2017-11-03T03:50:07.025Z,1016.28
2017-11-03T03:51:08.840Z,1016.28
2017-11-03T03:52:10.729Z,1016.30
2017-11-03T03:53:12.613Z,1016.33
2017-11-03T03:54:14.493Z,1016.30
2017-11-03T03:55:28.902Z,1016.35
2017-11-03T03:56:30.784Z,1016.33
2017-11-03T03:57:32.666Z,1016.33
2017-11-03T03:58:34.549Z,1016.35
2017-11-03T03:59:36.379Z,1016.35
2017-11-03T04:00:38.197Z,1016.38
2017-11-03T04:01:40.077Z,1016.36
2017-11-03T04:02:41.960Z,1016.38
2017-11-03T04:03:43.843Z,1016.41
2017-11-03T04:04:57.999Z,1016.36
2017-11-03T04:05:59.882Z,1016.38
2017-11-03T04:07:01.766Z,1016.39
2017-11-03T04:08:03.651Z,1016.38
2017-11-03T04:09:05.481Z,1016.43
2017-11-03T04:10:07.299Z,1016.48
2017-11-03T04:11:09.179Z,1016.42
2017-11-03T04:12:11.060Z,1016.43
2017-11-03T04:13:12.943Z,1016.42
2017-11-03T04:14:27.093Z,1016.38
2017-11-03T04:15:28.976Z,1016.37
2017-11-03T04:16:30.861Z,1016.37
2017-11-03T04:17:32.744Z,1016.37
2017-11-03T04:18:34.575Z,1016.40
2017-11-03T04:19:36.402Z,1016.40
2017-11-03T04:20:38.282Z,1016.43
2017-11-03T04:21:40.172Z,1016.43
2017-11-03T04:22:42.055Z,1016.46
2017-11-03T04:23:56.215Z,1016.48
2017-11-03T04:24:58.096Z,1016.49
2017-11-03T04:25:59.979Z,1016.50
2017-11-03T04:27:01.867Z,1016.49
2017-11-03T04:28:03.682Z,1016.56
2017-11-03T04:29:05.497Z,1016.58
2017-11-03T04:30:07.387Z,1016.53
2017-11-03T04:31:09.269Z,1016.53
2017-11-03T04:32:11.149Z,1016.57
2017-11-03T04:33:25.302Z,1016.57
2017-11-03T04:34:27.185Z,1016.50
2017-11-03T04:35:29.077Z,1016.56
2017-11-03T04:36:30.965Z,1016.58
2017-11-03T04:37:32.808Z,1016.59
2017-11-03T04:38:34.624Z,1016.60
2017-11-03T04:39:36.506Z,1016.62
2017-11-03T04:40:38.390Z,1016.62
2017-11-03T04:41:40.276Z,1016.56
2017-11-03T04:42:54.429Z,1016.63
2017-11-03T04:43:56.312Z,1016.56
2017-11-03T04:44:58.198Z,1016.63
2017-11-03T04:46:00.082Z,1016.56
2017-11-03T04:47:01.912Z,1016.59
2017-11-03T04:48:03.732Z,1016.64
2017-11-03T04:49:05.623Z,1016.60
2017-11-03T04:50:07.505Z,1016.61
2017-11-03T04:51:09.389Z,1016.60
2017-11-03T04:52:23.540Z,1016.60
2017-11-03T04:53:25.423Z,1016.58
2017-11-03T04:54:27.314Z,1016.57
2017-11-03T04:55:29.200Z,1016.65
2017-11-03T04:56:31.016Z,1016.63
2017-11-03T04:57:32.842Z,1016.63
2017-11-03T04:58:34.723Z,1016.62
2017-11-03T04:59:36.610Z,1016.65
2017-11-03T05:00:38.486Z,1016.63
2017-11-03T05:01:52.641Z,1016.65
2017-11-03T05:02:54.523Z,1016.67
2017-11-03T05:03:56.413Z,1016.67
2017-11-03T05:04:58.291Z,1016.65
2017-11-03T05:06:00.119Z,1016.63
2017-11-03T05:07:01.937Z,1016.65
2017-11-03T05:08:03.815Z,1016.66
2017-11-03T05:09:05.705Z,1016.70
2017-11-03T05:10:07.580Z,1016.70
2017-11-03T05:11:21.732Z,1016.67
2017-11-03T05:12:23.615Z,1016.68
2017-11-03T05:13:25.501Z,1016.69
2017-11-03T05:14:27.387Z,1016.70
2017-11-03T05:15:29.203Z,1016.67
2017-11-03T05:16:31.022Z,1016.68
2017-11-03T05:17:32.914Z,1016.69
2017-11-03T05:18:34.798Z,1016.66
2017-11-03T05:19:36.681Z,1016.61
2017-11-03T05:20:50.836Z,1016.61
2017-11-03T05:21:52.717Z,1016.60
2017-11-03T05:22:54.605Z,1016.66
2017-11-03T05:23:56.490Z,1016.67
2017-11-03T05:24:58.307Z,1016.66
2017-11-03T05:26:00.135Z,1016.69
2017-11-03T05:27:02.017Z,1016.68
2017-11-03T05:28:03.902Z,1016.68
2017-11-03T05:29:05.784Z,1016.72
2017-11-03T05:30:19.951Z,1016.75
2017-11-03T05:31:21.823Z,1016.72
2017-11-03T05:32:23.707Z,1016.77
2017-11-03T05:33:25.592Z,1016.80
2017-11-03T05:34:27.418Z,1016.80
2017-11-03T05:35:29.232Z,1016.79
2017-11-03T05:36:31.124Z,1016.76
2017-11-03T05:37:33.018Z,1016.81
2017-11-03T05:38:34.901Z,1016.82
2017-11-03T05:39:49.057Z,1016.80
2017-11-03T05:40:50.941Z,1016.79
2017-11-03T05:41:52.826Z,1016.79
2017-11-03T05:42:54.713Z,1016.81
2017-11-03T05:43:56.542Z,1016.82
2017-11-03T05:44:58.361Z,1016.83
2017-11-03T05:46:00.241Z,1016.91
2017-11-03T05:47:02.133Z,1016.87
2017-11-03T05:48:04.017Z,1016.90
2017-11-03T05:49:18.169Z,1016.92
2017-11-03T05:50:20.053Z,1016.91
2017-11-03T05:51:21.940Z,1016.94
2017-11-03T05:52:23.828Z,1016.95
2017-11-03T05:53:25.647Z,1016.97
2017-11-03T05:54:27.465Z,1017.00
2017-11-03T05:55:29.346Z,1017.02
2017-11-03T05:56:31.231Z,1017.05
2017-11-03T05:57:33.114Z,1017.06
2017-11-03T05:58:47.270Z,1017.05
2017-11-03T05:59:49.155Z,1017.07
2017-11-03T06:00:51.041Z,1017.07
2017-11-03T06:01:52.931Z,1017.09
2017-11-03T06:02:54.752Z,1017.09
2017-11-03T06:03:56.582Z,1017.08
2017-11-03T06:04:58.466Z,1017.13
2017-11-03T06:06:00.348Z,1017.18
2017-11-03T06:07:02.234Z,1017.20
2017-11-03T06:08:16.439Z,1017.22
2017-11-03T06:09:18.326Z,1017.25
2017-11-03T06:10:20.213Z,1017.23
2017-11-03T06:11:22.103Z,1017.27
2017-11-03T06:12:23.926Z,1017.29
2017-11-03T06:13:25.743Z,1017.30
2017-11-03T06:14:27.628Z,1017.31
2017-11-03T06:15:29.512Z,1017.29
2017-11-03T06:16:31.401Z,1017.33
2017-11-03T06:17:45.561Z,1017.33
2017-11-03T06:18:47.446Z,1017.38
2017-11-03T06:19:49.332Z,1017.39
2017-11-03T06:20:51.231Z,1017.41
2017-11-03T06:21:53.048Z,1017.43
2017-11-03T06:22:54.867Z,1017.45
2017-11-03T06:23:56.753Z,1017.50
2017-11-03T06:24:58.639Z,1017.51
2017-11-03T06:26:00.526Z,1017.50
2017-11-03T06:27:14.729Z,1017.53
2017-11-03T06:28:16.616Z,1017.57
2017-11-03T06:29:18.502Z,1017.55
2017-11-03T06:30:20.394Z,1017.59
2017-11-03T06:31:22.216Z,1017.57
2017-11-03T06:32:24.034Z,1017.61
2017-11-03T06:33:25.920Z,1017.61
2017-11-03T06:34:27.803Z,1017.61
2017-11-03T06:35:29.692Z,1017.60
2017-11-03T06:36:43.896Z,1017.61
2017-11-03T06:37:45.782Z,1017.64
2017-11-03T06:38:47.669Z,1017.62
2017-11-03T06:39:49.560Z,1017.67
2017-11-03T06:40:51.382Z,1017.66
2017-11-03T06:41:53.209Z,1017.72
2017-11-03T06:42:55.095Z,1017.73
2017-11-03T06:43:56.998Z,1017.75
2017-11-03T06:44:58.881Z,1017.76
2017-11-03T06:46:13.092Z,1017.77
2017-11-03T06:47:14.981Z,1017.80
2017-11-03T06:48:16.870Z,1017.80
2017-11-03T06:49:18.759Z,1017.84
2017-11-03T06:50:20.581Z,1017.86
2017-11-03T06:51:22.401Z,1017.88
2017-11-03T06:52:24.297Z,1017.87
2017-11-03T06:53:26.184Z,1017.95
2017-11-03T06:54:28.075Z,1017.91
2017-11-03T06:55:42.230Z,1018.01
2017-11-03T06:56:44.118Z,1018.02
2017-11-03T06:57:46.005Z,1018.07
2017-11-03T06:58:47.895Z,1018.06
2017-11-03T06:59:49.721Z,1018.07
2017-11-03T07:00:51.547Z,1018.12
2017-11-03T07:01:53.429Z,1018.08
2017-11-03T07:02:55.316Z,1018.08
2017-11-03T07:03:57.208Z,1018.07
2017-11-03T07:05:11.368Z,1018.10
2017-11-03T07:06:13.256Z,1018.08
2017-11-03T07:07:15.142Z,1018.08
2017-11-03T07:08:17.031Z,1018.09
2017-11-03T07:09:18.864Z,1018.09
2017-11-03T07:10:20.685Z,1018.14
2017-11-03T07:11:22.574Z,1018.13
2017-11-03T07:12:24.459Z,1018.17
2017-11-03T07:13:26.346Z,1018.18
2017-11-03T07:14:40.504Z,1018.19
2017-11-03T07:15:42.404Z,1018.17
2017-11-03T07:16:44.278Z,1018.19
2017-11-03T07:17:46.168Z,1018.19
2017-11-03T07:18:47.990Z,1018.16
2017-11-03T07:19:49.812Z,1018.20
2017-11-03T07:20:51.703Z,1018.20
2017-11-03T07:21:53.588Z,1018.18
2017-11-03T07:22:55.482Z,1018.16
2017-11-03T07:24:09.641Z,1018.23
2017-11-03T07:25:11.528Z,1018.24
2017-11-03T07:26:13.416Z,1018.23
2017-11-03T07:27:15.306Z,1018.21
2017-11-03T07:28:17.131Z,1018.20
2017-11-03T07:29:18.954Z,1018.22
2017-11-03T07:30:20.840Z,1018.18
2017-11-03T07:31:22.725Z,1018.22
2017-11-03T07:32:24.624Z,1018.20
2017-11-03T07:33:38.830Z,1018.26
2017-11-03T07:34:40.719Z,1018.27
2017-11-03T07:35:42.606Z,1018.24
2017-11-03T07:36:44.500Z,1018.26
2017-11-03T07:37:46.321Z,1018.25
2017-11-03T07:38:48.142Z,1018.34
2017-11-03T07:39:50.030Z,1018.24
2017-11-03T07:40:51.914Z,1018.26
2017-11-03T07:41:53.801Z,1018.29
2017-11-03T07:43:07.960Z,1018.29
2017-11-03T07:44:09.847Z,1018.28
2017-11-03T07:45:11.736Z,1018.29
2017-11-03T07:46:13.628Z,1018.28
2017-11-03T07:47:15.451Z,1018.28
2017-11-03T07:48:17.273Z,1018.27
2017-11-03T07:49:19.161Z,1018.28
2017-11-03T07:50:21.045Z,1018.27
2017-11-03T07:51:22.935Z,1018.29
2017-11-03T07:52:37.094Z,1018.34
2017-11-03T07:53:38.981Z,1018.30
2017-11-03T07:54:40.869Z,1018.35
2017-11-03T07:55:42.760Z,1018.42
2017-11-03T07:56:44.582Z,1018.44
2017-11-03T07:57:46.402Z,1018.46
2017-11-03T07:58:48.287Z,1018.53
2017-11-03T07:59:50.174Z,1018.48
2017-11-03T08:00:52.060Z,1018.51
2017-11-03T08:02:06.222Z,1018.47
2017-11-03T08:03:08.109Z,1018.51
2017-11-03T08:04:09.995Z,1018.50
2017-11-03T08:05:11.887Z,1018.50
2017-11-03T08:06:13.710Z,1018.49
2017-11-03T08:07:15.539Z,1018.50
2017-11-03T08:08:17.418Z,1018.54
2017-11-03T08:09:19.306Z,1018.51
2017-11-03T08:10:21.195Z,1018.51
2017-11-03T08:11:35.351Z,1018.53
2017-11-03T08:12:37.240Z,1018.51
2017-11-03T08:13:39.126Z,1018.50
2017-11-03T08:14:41.016Z,1018.55
2017-11-03T08:15:42.840Z,1018.54
2017-11-03T08:16:44.662Z,1018.55
2017-11-03T08:17:46.550Z,1018.55
2017-11-03T08:18:48.435Z,1018.55
2017-11-03T08:19:50.323Z,1018.56
2017-11-03T08:21:04.482Z,1018.60
2017-11-03T08:22:06.374Z,1018.60
2017-11-03T08:23:08.266Z,1018.62
2017-11-03T08:24:10.157Z,1018.63
2017-11-03T08:25:11.980Z,1018.60
2017-11-03T08:26:13.804Z,1018.67
2017-11-03T08:27:15.693Z,1018.64
2017-11-03T08:28:17.579Z,1018.61
2017-11-03T08:29:19.466Z,1018.60
2017-11-03T08:30:33.675Z,1018.65
2017-11-03T08:31:35.577Z,1018.65
2017-11-03T08:32:37.467Z,1018.65
2017-11-03T08:33:39.358Z,1018.64
2017-11-03T08:34:41.222Z,1018.70
2017-11-03T08:35:43.044Z,1018.70
2017-11-03T08:36:44.866Z,1018.74
2017-11-03T08:37:46.752Z,1018.70
2017-11-03T08:38:48.641Z,1018.73
2017-11-03T08:40:02.915Z,1018.73
2017-11-03T08:41:04.803Z,1018.71
2017-11-03T08:42:06.697Z,1018.69
2017-11-03T08:43:08.596Z,1018.69
2017-11-03T08:44:10.415Z,1018.72
2017-11-03T08:45:12.237Z,1018.71
2017-11-03T08:46:14.129Z,1018.80
2017-11-03T08:47:16.016Z,1018.82
2017-11-03T08:48:17.904Z,1018.78
2017-11-03T08:49:32.065Z,1018.81
2017-11-03T08:50:33.954Z,1018.92
2017-11-03T08:51:35.842Z,1018.89
2017-11-03T08:52:37.741Z,1018.91
2017-11-03T08:53:39.558Z,1018.87
2017-11-03T08:54:41.381Z,1018.92
2017-11-03T08:55:43.269Z,1018.90
2017-11-03T08:56:45.159Z,1018.90
2017-11-03T08:57:47.048Z,1018.95
2017-11-03T08:59:01.210Z,1018.96
2017-11-03T09:00:03.102Z,1019.05
2017-11-03T09:01:04.990Z,1019.03
2017-11-03T09:02:06.885Z,1019.02
2017-11-03T09:03:08.715Z,1019.02
2017-11-03T09:04:10.534Z,1018.98
2017-11-03T09:05:12.423Z,1019.02
2017-11-03T09:06:14.316Z,1018.97
2017-11-03T09:07:16.200Z,1019.01
2017-11-03T09:08:30.359Z,1019.01
2017-11-03T09:09:32.249Z,1019.00
2017-11-03T09:10:34.138Z,1019.01
2017-11-03T09:11:36.039Z,1019.05
2017-11-03T09:12:38.060Z,1019.01
2017-11-03T09:13:39.882Z,1019.05
2017-11-03T09:14:41.729Z,1019.06
2017-11-03T09:15:43.553Z,1019.07
2017-11-03T09:16:45.376Z,1019.11
2017-11-03T09:17:59.572Z,1019.10
2017-11-03T09:19:01.460Z,1019.14
2017-11-03T09:20:03.362Z,1019.15
2017-11-03T09:21:05.249Z,1019.21
2017-11-03T09:22:07.079Z,1019.22
2017-11-03T09:23:08.900Z,1019.18
2017-11-03T09:24:10.788Z,1019.18
2017-11-03T09:25:12.677Z,1019.21
2017-11-03T09:26:14.562Z,1019.20
2017-11-03T09:27:28.722Z,1019.17
2017-11-03T09:28:30.615Z,1019.20
2017-11-03T09:29:32.535Z,1019.19
2017-11-03T09:30:34.446Z,1019.21
2017-11-03T09:31:36.280Z,1019.21
2017-11-03T09:32:38.118Z,1019.22
2017-11-03T09:33:40.003Z,1019.23
2017-11-03T09:34:41.892Z,1019.19
2017-11-03T09:35:43.781Z,1019.20
2017-11-03T09:36:57.990Z,1019.19
2017-11-03T09:37:59.880Z,1019.20
2017-11-03T09:39:01.774Z,1019.24
2017-11-03T09:40:03.666Z,1019.24
2017-11-03T09:41:05.490Z,1019.20
2017-11-03T09:42:07.328Z,1019.19
2017-11-03T09:43:09.211Z,1019.20
2017-11-03T09:44:11.100Z,1019.17
2017-11-03T09:45:12.999Z,1019.20
2017-11-03T09:46:27.163Z,1019.19
2017-11-03T09:47:29.055Z,1019.17
2017-11-03T09:48:30.946Z,1019.20
2017-11-03T09:49:32.840Z,1019.22
2017-11-03T09:50:34.667Z,1019.20
2017-11-03T09:51:36.488Z,1019.22
2017-11-03T09:52:38.377Z,1019.18
2017-11-03T09:53:40.266Z,1019.19
2017-11-03T09:54:42.156Z,1019.19
2017-11-03T09:55:56.315Z,1019.22
2017-11-03T09:56:58.220Z,1019.22
2017-11-03T09:58:00.099Z,1019.19
2017-11-03T09:59:01.992Z,1019.21
2017-11-03T10:00:03.816Z,1019.25
2017-11-03T10:01:05.657Z,1019.29
2017-11-03T10:02:07.533Z,1019.31
2017-11-03T10:03:09.421Z,1019.31
2017-11-03T10:04:11.310Z,1019.27
2017-11-03T10:05:25.473Z,1019.26
2017-11-03T10:06:27.364Z,1019.27
2017-11-03T10:07:29.254Z,1019.25
2017-11-03T10:08:31.147Z,1019.24
2017-11-03T10:09:32.974Z,1019.27
2017-11-03T10:10:34.802Z,1019.24
2017-11-03T10:11:36.692Z,1019.24
2017-11-03T10:12:38.576Z,1019.26
2017-11-03T10:13:40.476Z,1019.23
2017-11-03T10:14:54.637Z,1019.27
2017-11-03T10:15:56.526Z,1019.35
2017-11-03T10:16:58.414Z,1019.33
2017-11-03T10:18:00.307Z,1019.38
2017-11-03T10:19:02.131Z,1019.37
2017-11-03T10:20:03.957Z,1019.37
2017-11-03T10:21:05.850Z,1019.38
2017-11-03T10:22:07.734Z,1019.36
2017-11-03T10:23:09.625Z,1019.38
2017-11-03T10:24:23.786Z,1019.38
2017-11-03T10:25:25.677Z,1019.39
2017-11-03T10:26:27.566Z,1019.38
2017-11-03T10:27:29.464Z,1019.40
2017-11-03T10:28:31.286Z,1019.40
2017-11-03T10:29:33.107Z,1019.43
2017-11-03T10:30:35.004Z,1019.46
2017-11-03T10:31:36.897Z,1019.47
2017-11-03T10:32:38.785Z,1019.43
2017-11-03T10:33:52.994Z,1019.44
2017-11-03T10:34:54.886Z,1019.45
2017-11-03T10:35:56.775Z,1019.46
2017-11-03T10:36:58.685Z,1019.51
2017-11-03T10:38:00.503Z,1019.44
2017-11-03T10:39:02.328Z,1019.41
2017-11-03T10:40:04.216Z,1019.39
2017-11-03T10:41:06.106Z,1019.36
2017-11-03T10:42:07.996Z,1019.36
2017-11-03T10:43:22.153Z,1019.36
2017-11-03T10:44:24.042Z,1019.32
2017-11-03T10:45:25.936Z,1019.33
2017-11-03T10:46:27.834Z,1019.32
2017-11-03T10:47:29.656Z,1019.33
2017-11-03T10:48:31.479Z,1019.32
2017-11-03T10:49:33.380Z,1019.31
2017-11-03T10:50:35.266Z,1019.26
2017-11-03T10:51:37.158Z,1019.25
2017-11-03T10:52:51.507Z,1019.28
2017-11-03T10:53:53.489Z,1019.29
2017-11-03T10:54:55.478Z,1019.32
2017-11-03T10:55:57.467Z,1019.29
2017-11-03T10:56:59.386Z,1019.30
2017-11-03T10:58:01.332Z,1019.26
2017-11-03T10:59:03.317Z,1019.26
2017-11-03T11:00:05.322Z,1019.27
2017-11-03T11:01:07.306Z,1019.24
2017-11-03T11:02:21.598Z,1019.20
2017-11-03T11:03:23.616Z,1019.18
2017-11-03T11:04:25.658Z,1019.12
2017-11-03T11:05:27.723Z,1019.08
2017-11-03T11:06:29.697Z,1019.09
2017-11-03T11:07:31.612Z,1019.09
2017-11-03T11:08:33.596Z,1019.07
2017-11-03T11:09:35.589Z,1019.02
2017-11-03T11:10:37.620Z,1019.06
2017-11-03T11:11:52.030Z,1019.12
2017-11-03T11:12:54.062Z,1019.13
2017-11-03T11:13:56.063Z,1019.13
2017-11-03T11:14:58.031Z,1019.13
2017-11-03T11:16:00.000Z,1019.13
2017-11-03T11:17:01.980Z,1019.09
2017-11-03T11:18:04.021Z,1019.07
2017-11-03T11:19:06.012Z,1019.07
2017-11-03T11:20:08.012Z,1019.05
2017-11-03T11:21:22.327Z,1019.03
2017-11-03T11:22:24.316Z,1019.04
2017-11-03T11:23:26.292Z,1019.01
2017-11-03T11:24:28.270Z,1018.98
2017-11-03T11:25:30.206Z,1018.94
2017-11-03T11:26:32.131Z,1018.98
2017-11-03T11:27:34.112Z,1018.92
2017-11-03T11:28:36.161Z,1018.96
2017-11-03T11:29:38.181Z,1019.02
2017-11-03T11:30:52.508Z,1019.00
2017-11-03T11:31:54.526Z,1019.00
2017-11-03T11:32:56.553Z,1019.04
2017-11-03T11:33:58.581Z,1019.08
2017-11-03T11:35:00.525Z,1019.09
2017-11-03T11:36:02.439Z,1019.12
2017-11-03T11:37:04.469Z,1019.11
2017-11-03T11:38:06.480Z,1019.09
2017-11-03T11:39:08.452Z,1019.08
2017-11-03T11:40:22.766Z,1019.07
2017-11-03T11:41:24.738Z,1019.08
2017-11-03T11:42:26.695Z,1019.05
2017-11-03T11:43:28.682Z,1019.09
2017-11-03T11:44:30.609Z,1019.05
2017-11-03T11:45:32.536Z,1019.06
2017-11-03T11:46:34.551Z,1019.04
2017-11-03T11:47:36.604Z,1018.98
2017-11-03T11:48:38.661Z,1019.05
2017-11-03T11:49:53.125Z,1019.04
2017-11-03T11:50:55.144Z,1019.02
2017-11-03T11:51:57.091Z,1019.03
2017-11-03T11:52:59.031Z,1019.02
2017-11-03T11:54:00.919Z,1019.01
2017-11-03T11:55:02.798Z,1019.01
2017-11-03T11:56:04.616Z,1018.97
2017-11-03T11:57:06.444Z,1018.98
2017-11-03T11:58:08.333Z,1019.01
2017-11-03T11:59:22.558Z,1019.00
2017-11-03T12:00:24.450Z,1019.03
2017-11-03T12:01:26.339Z,1019.01
2017-11-03T12:02:28.232Z,1018.99
2017-11-03T12:03:30.059Z,1019.01
2017-11-03T12:04:31.883Z,1018.99
2017-11-03T12:05:33.777Z,1018.96
2017-11-03T12:06:35.664Z,1018.96
2017-11-03T12:07:37.594Z,1018.91
2017-11-03T12:08:51.719Z,1018.90
2017-11-03T12:09:53.613Z,1018.93
2017-11-03T12:10:55.500Z,1018.97
2017-11-03T12:11:57.395Z,1018.93
2017-11-03T12:12:59.221Z,1018.94
2017-11-03T12:14:01.047Z,1018.93
2017-11-03T12:15:02.932Z,1018.92
2017-11-03T12:16:04.817Z,1018.94
2017-11-03T12:17:06.717Z,1018.92
2017-11-03T12:18:20.880Z,1018.94
2017-11-03T12:19:22.770Z,1018.92
2017-11-03T12:20:24.658Z,1018.98
2017-11-03T12:21:26.548Z,1018.96
2017-11-03T12:22:28.373Z,1018.95
2017-11-03T12:23:30.197Z,1018.94
2017-11-03T12:24:32.096Z,1018.90
2017-11-03T12:25:33.980Z,1018.91
2017-11-03T12:26:35.869Z,1018.91
2017-11-03T12:27:50.031Z,1018.91
2017-11-03T12:28:51.917Z,1018.96
2017-11-03T12:29:53.807Z,1018.95
2017-11-03T12:30:55.697Z,1018.95
2017-11-03T12:31:57.533Z,1018.97
2017-11-03T12:32:59.355Z,1018.94
2017-11-03T12:34:01.214Z,1018.96
2017-11-03T12:35:03.041Z,1018.96
2017-11-03T12:36:04.871Z,1018.96
2017-11-03T12:37:19.069Z,1018.95
2017-11-03T12:38:20.954Z,1018.95
2017-11-03T12:39:22.843Z,1018.96
2017-11-03T12:40:24.736Z,1018.96
2017-11-03T12:41:26.562Z,1018.97
2017-11-03T12:42:28.388Z,1018.98
2017-11-03T12:43:30.276Z,1018.93
2017-11-03T12:44:32.180Z,1018.99